Viking Sky — LAYU7 — position and weather

sailwx.info

Track history (hours):
 
Tides and Currents Weather Stations Pressure Air Temp Water Temp Dewpoint Dewpoint Depression Visibility Wind Speed Wind Dir Waves Ship Positions

Viking Sky

Last reported at 2019-Dec-15 07:31 UTC. Time now 2019-Dec-15 09:56 UTC.
Position N 37°49' W 009°27'.

Length 228 m; draft 6.7 m.

Type: Passenger vessel. MMSI: 259186000.

Date/timePositionNaut miles runAvg speedWind from/ knotsBaromVisibWave heightAir tempDewpointWater temp
2019-Dec-15 07:31N 37°49' W 009°27'7314.8
2019-Dec-15 02:32N 36°42' W 008°49'176 6.5
2019-Dec-13 23:29N 36°03' W 005°16'1515.4
2019-Dec-13 22:30N 36°11' W 005°00'221 5.3
2019-Dec-12 04:30N 37°31' W 000°42'3211.3
2019-Dec-12 01:41N 37°56' W 000°18'92 6.1
2019-Dec-11 10:36N 39°27' W 000°20'0 0.0
2019-Dec-11 08:57N 39°27' W 000°20'0 0.0
2019-Dec-11 05:57N 39°27' W 000°20'7 5.0
2019-Dec-11 04:29N 39°27' W 000°10'1413.9
2019-Dec-11 03:30N 39°35' E 000°04'10914.5
2019-Dec-10 20:02N 40°51' E 001°46'2516.7
2019-Dec-10 18:31N 41°09' E 002°08'13 6.2
2019-Dec-10 16:28N 41°22' E 002°11'0 0.0
2019-Dec-10 14:28N 41°22' E 002°11'0 0.0
2019-Dec-10 12:58N 41°22' E 002°11'0 0.0
2019-Dec-10 12:28N 41°22' E 002°11'0 0.0
2019-Dec-10 11:28N 41°22' E 002°11'0 0.0
2019-Dec-10 10:28N 41°22' E 002°11'0 0.0
2019-Dec-10 09:28N 41°22' E 002°11'0 0.0
2019-Dec-10 08:58N 41°22' E 002°11'0 0.0
2019-Dec-10 06:28N 41°22' E 002°11'0 0.0
2019-Dec-10 04:28N 41°22' E 002°11'0 0.0
2019-Dec-10 03:28N 41°22' E 002°11'0 0.0
2019-Dec-10 02:58N 41°22' E 002°11'0 0.0
2019-Dec-10 01:58N 41°22' E 002°11'0 0.0
2019-Dec-09 21:58N 41°22' E 002°11'0 0.0
2019-Dec-09 20:58N 41°22' E 002°11'0 0.0
2019-Dec-09 20:28N 41°22' E 002°11'0 0.0
2019-Dec-09 19:58N 41°22' E 002°11'0 0.0
2019-Dec-09 17:58N 41°22' E 002°11'0 0.0
2019-Dec-09 06:58N 41°22' E 002°11'6 2.3
2019-Dec-09 04:30N 41°17' E 002°16'1211.9
2019-Dec-09 03:30N 41°24' E 002°29'  
2019-Dec-06 19:58N 43°07' E 006°49'612.1
2019-Dec-06 19:31N 43°12' E 006°54'1912.5
2019-Dec-06 18:00N 43°26' E 007°11'1313.1
2019-Dec-06 17:01N 43°36' E 007°23'9 8.8
2019-Dec-06 16:01N 43°44' E 007°26'0 0.0
2019-Dec-06 14:28N 43°44' E 007°26'0 0.0
2019-Dec-06 13:58N 43°44' E 007°26'0 0.0
2019-Dec-06 12:58N 43°44' E 007°26'0 0.0
2019-Dec-06 12:28N 43°44' E 007°26'0 0.0
2019-Dec-06 11:58N 43°44' E 007°26'0 0.0
2019-Dec-06 10:58N 43°44' E 007°26'0 0.0
2019-Dec-06 06:58N 43°44' E 007°26'0 0.0
2019-Dec-06 06:28N 43°44' E 007°26'15 7.7
2019-Dec-06 04:30N 43°40' E 007°46'3011.8
2019-Dec-06 02:00N 43°36' E 008°26'711.4
2019-Dec-06 01:24N 43°35' E 008°36'3411.6
2019-Dec-05 22:30N 43°31' E 009°22'3712.5
2019-Dec-05 19:30N 43°32' E 010°14'3 3.2
2019-Dec-05 18:29N 43°33' E 010°18'0 0.0
2019-Dec-05 17:29N 43°33' E 010°18'0 0.0
2019-Dec-05 16:29N 43°33' E 010°18'0 0.0
2019-Dec-05 15:29N 43°33' E 010°18'0 0.0
2019-Dec-05 13:29N 43°33' E 010°18'0 0.0
2019-Dec-05 12:59N 43°33' E 010°18'0 0.0
2019-Dec-05 08:59N 43°33' E 010°18'  
Track history (hours):
 
Tides and Currents Weather Stations Pressure Air Temp Water Temp Dewpoint Dewpoint Depression Visibility Wind Speed Wind Dir Waves Ship Positions

Viking Sky

Last reported at 2019-Dec-15 07:31 UTC. Time now 2019-Dec-15 09:56 UTC.
Position N 37°49' W 009°27'.

Length 228 m; draft 6.7 m.

Type: Passenger vessel. MMSI: 259186000.

Date/timePositionNaut miles runAvg speedWind from/ knotsBaromVisibWave heightAir tempDewpointWater temp
2019-Dec-15 07:31N 37°49' W 009°27'7314.8
2019-Dec-15 02:32N 36°42' W 008°49'176 6.5
2019-Dec-13 23:29N 36°03' W 005°16'1515.4
2019-Dec-13 22:30N 36°11' W 005°00'221 5.3
2019-Dec-12 04:30N 37°31' W 000°42'3211.3
2019-Dec-12 01:41N 37°56' W 000°18'92 6.1
2019-Dec-11 10:36N 39°27' W 000°20'0 0.0
2019-Dec-11 08:57N 39°27' W 000°20'0 0.0
2019-Dec-11 05:57N 39°27' W 000°20'7 5.0
2019-Dec-11 04:29N 39°27' W 000°10'1413.9
2019-Dec-11 03:30N 39°35' E 000°04'10914.5
2019-Dec-10 20:02N 40°51' E 001°46'2516.7
2019-Dec-10 18:31N 41°09' E 002°08'13 6.2
2019-Dec-10 16:28N 41°22' E 002°11'0 0.0
2019-Dec-10 14:28N 41°22' E 002°11'0 0.0
2019-Dec-10 12:58N 41°22' E 002°11'0 0.0
2019-Dec-10 12:28N 41°22' E 002°11'0 0.0
2019-Dec-10 11:28N 41°22' E 002°11'0 0.0
2019-Dec-10 10:28N 41°22' E 002°11'0 0.0
2019-Dec-10 09:28N 41°22' E 002°11'0 0.0
2019-Dec-10 08:58N 41°22' E 002°11'0 0.0
2019-Dec-10 06:28N 41°22' E 002°11'0 0.0
2019-Dec-10 04:28N 41°22' E 002°11'0 0.0
2019-Dec-10 03:28N 41°22' E 002°11'0 0.0
2019-Dec-10 02:58N 41°22' E 002°11'0 0.0
2019-Dec-10 01:58N 41°22' E 002°11'0 0.0
2019-Dec-09 21:58N 41°22' E 002°11'0 0.0
2019-Dec-09 20:58N 41°22' E 002°11'0 0.0
2019-Dec-09 20:28N 41°22' E 002°11'0 0.0
2019-Dec-09 19:58N 41°22' E 002°11'0 0.0
2019-Dec-09 17:58N 41°22' E 002°11'0 0.0
2019-Dec-09 06:58N 41°22' E 002°11'6 2.3
2019-Dec-09 04:30N 41°17' E 002°16'1211.9
2019-Dec-09 03:30N 41°24' E 002°29'  
2019-Dec-06 19:58N 43°07' E 006°49'612.1
2019-Dec-06 19:31N 43°12' E 006°54'1912.5
2019-Dec-06 18:00N 43°26' E 007°11'1313.1
2019-Dec-06 17:01N 43°36' E 007°23'9 8.8
2019-Dec-06 16:01N 43°44' E 007°26'0 0.0
2019-Dec-06 14:28N 43°44' E 007°26'0 0.0
2019-Dec-06 13:58N 43°44' E 007°26'0 0.0
2019-Dec-06 12:58N 43°44' E 007°26'0 0.0
2019-Dec-06 12:28N 43°44' E 007°26'0 0.0
2019-Dec-06 11:58N 43°44' E 007°26'0 0.0
2019-Dec-06 10:58N 43°44' E 007°26'0 0.0
2019-Dec-06 06:58N 43°44' E 007°26'0 0.0
2019-Dec-06 06:28N 43°44' E 007°26'15 7.7
2019-Dec-06 04:30N 43°40' E 007°46'3011.8
2019-Dec-06 02:00N 43°36' E 008°26'711.4
2019-Dec-06 01:24N 43°35' E 008°36'3411.6
2019-Dec-05 22:30N 43°31' E 009°22'3712.5
2019-Dec-05 19:30N 43°32' E 010°14'3 3.2
2019-Dec-05 18:29N 43°33' E 010°18'0 0.0
2019-Dec-05 17:29N 43°33' E 010°18'0 0.0
2019-Dec-05 16:29N 43°33' E 010°18'0 0.0
2019-Dec-05 15:29N 43°33' E 010°18'0 0.0
2019-Dec-05 13:29N 43°33' E 010°18'0 0.0
2019-Dec-05 12:59N 43°33' E 010°18'0 0.0
2019-Dec-05 08:59N 43°33' E 010°18'  

Dump ship's entire track history